Hao, French Polynesia
Current Conditions -  °F | °C
As of 10:00 PM on Wednesday 22 Oct 2014 (Local Time) from NTAA Reporting Station
Rain Showers Rain Showers  
Wind Chill: 25°   Ceiling: Unl
Heat Index: 26°   Visibility: 6mi
Dew Point: 22°   Wind: 8mph
Humidity: 83%   Direction: 180°S
Pressure: 29.88"   Gusts: NA
Location:  18.25°S, 140.9°W
Report Text: NTAA 230700Z 18007KT 9999 VCSH FEW016 25/22 Q1012 NOSIG
Loading
Personal Weather Stations






























Interactive Weather Map
Tropical Storm Tracking
New forecast layout! Learn more

10-Day Weather Forecast

Advertisements
Track Severe Weather on mobile